CheckWX is a tool to help pilots better visualize weather data.  It is not intended as a substitute for an official pre-flight weather briefing.

17:57:24 UTC

KJAC METAR
Jackson Hole Airport
Jackson, Wyoming, USA
Current

28 mins ago

KJAC 061729Z 21007KT 2SM -SN BKN004 OVC009 01/00 A2984 RMK AO2 CIG 003V008 P0003
Observed
Apr-6 @ 17:29 UTC
Wind
  • 210° at 7 KTS
Visibility
Flight Rules
LIFR
Conditions
Light Snow
Cloud Levels
  • Broken at 400' AGL
  • Overcast at 900' AGL
Temperature
C / 34°F
Dewpoint
C / 32°F
Humidity
93%
Altimeter
29.84" Hg
Pressure
1010.52 hPa
Current Rain
0.03"
Previous

50 mins ago

KJAC 061707Z 18007KT 2SM -SN OVC006 01/00 A2983 RMK AO2 CIG 004V010 P0001
Observed
Apr-6 @ 17:07 UTC
Wind
  • 180° at 7 KTS
Visibility
Flight Rules
IFR
Conditions
Light Snow
Cloud Levels
  • Overcast at 600' AGL
Temperature
C / 34°F
Dewpoint
C / 32°F
Humidity
93%
Altimeter
29.83" Hg
Pressure
1010.12 hPa
Current Rain
0.01"
Previous

1 hour ago

KJAC 061656Z 22008KT 4SM -SN BR BKN006 BKN011 OVC018 02/01 A2983 RMK AO2 RAE48SNB48 SLP120 P0003 T00170006
Observed
Apr-6 @ 16:56 UTC
Wind
  • 220° at 8 KTS
Visibility
Flight Rules
IFR
Conditions
Light Snow, Mist
Cloud Levels
  • Broken at 600' AGL
  • Broken at 1,100' AGL
  • Overcast at 1,800' AGL
Temperature
C / 36°F
Dewpoint
C / 34°F
Humidity
93%
Altimeter
29.83" Hg
Pressure
1010.12 hPa
Current Rain
0.03"